createdAt,value
2022-11-15T00:01:44.420Z,96784.84
2022-11-15T00:04:14.613Z,96790.97
2022-11-15T00:06:45.558Z,96790.56
2022-11-15T00:09:13.984Z,96788.06
2022-11-15T00:11:43.458Z,96796.16
2022-11-15T00:14:18.026Z,96796.28
2022-11-15T00:16:47.412Z,96793.44
2022-11-15T00:19:17.890Z,96796.22
2022-11-15T00:21:46.809Z,96797.84
2022-11-15T00:24:15.287Z,96789.16
2022-11-15T00:26:44.196Z,96786.16
2022-11-15T00:29:12.628Z,96791.72
2022-11-15T00:31:41.125Z,96787.28
2022-11-15T00:34:09.455Z,96778.22
2022-11-15T00:36:39.385Z,96775.19
2022-11-15T00:39:07.935Z,96784.78
2022-11-15T00:41:36.770Z,96777.41
2022-11-15T00:44:05.654Z,96772.06
2022-11-15T00:46:33.919Z,96768.16
2022-11-15T00:49:03.184Z,96771.59
2022-11-15T00:51:32.354Z,96770.63
2022-11-15T00:54:02.311Z,96773.09
2022-11-15T00:56:30.597Z,96767.94
2022-11-15T00:58:59.538Z,96772.06
2022-11-15T01:01:28.127Z,96764.31
2022-11-15T01:04:01.223Z,96760.41
2022-11-15T01:06:30.087Z,96765.16
2022-11-15T01:08:58.567Z,96763.66
2022-11-15T01:11:28.526Z,96761.03
2022-11-15T01:13:58.407Z,96768.50
2022-11-15T01:16:27.078Z,96765.13
2022-11-15T01:19:01.631Z,96754.38
2022-11-15T01:21:30.835Z,96750.81
2022-11-15T01:23:59.567Z,96748.88
2022-11-15T01:26:30.803Z,96752.00
2022-11-15T01:28:59.810Z,96747.78
2022-11-15T01:31:28.193Z,96740.03
2022-11-15T01:33:57.024Z,96732.13
2022-11-15T01:36:26.050Z,96735.09
2022-11-15T01:38:56.780Z,96741.69
2022-11-15T01:41:30.721Z,96744.41
2022-11-15T01:44:15.395Z,96734.28
2022-11-15T01:46:48.669Z,96732.13
2022-11-15T01:49:22.161Z,96732.34
2022-11-15T01:51:50.993Z,96725.31
2022-11-15T01:54:23.380Z,96717.84
2022-11-15T01:56:58.349Z,96713.03
2022-11-15T01:59:27.923Z,96706.59
2022-11-15T02:01:56.428Z,96703.97
2022-11-15T02:04:30.017Z,96699.28
2022-11-15T02:06:58.580Z,96708.66
2022-11-15T02:09:27.070Z,96706.72
2022-11-15T02:11:58.185Z,96705.56
2022-11-15T02:14:28.962Z,96705.56
2022-11-15T02:17:07.589Z,96700.94
2022-11-15T02:20:32.747Z,96691.03
2022-11-15T02:23:40.826Z,96692.50
2022-11-15T02:26:37.256Z,96690.03
2022-11-15T02:29:11.387Z,96679.84
2022-11-15T02:31:49.753Z,96678.03
2022-11-15T02:34:30.694Z,96670.69
2022-11-15T02:37:08.459Z,96668.41
2022-11-15T02:39:45.364Z,96675.16
2022-11-15T02:42:37.818Z,96662.81
2022-11-15T02:45:10.063Z,96665.31
2022-11-15T02:47:46.419Z,96672.00
2022-11-15T02:50:19.048Z,96672.25
2022-11-15T02:52:48.847Z,96665.72
2022-11-15T02:55:34.117Z,96668.66
2022-11-15T02:58:27.925Z,96677.06
2022-11-15T03:01:03.245Z,96673.97
2022-11-15T03:03:59.071Z,96665.19
2022-11-15T03:06:38.307Z,96675.72
2022-11-15T03:09:11.770Z,96666.38
2022-11-15T03:11:44.502Z,96650.28
2022-11-15T03:14:23.566Z,96658.16
2022-11-15T03:17:05.785Z,96658.41
2022-11-15T03:19:43.338Z,96656.91
2022-11-15T03:22:17.595Z,96652.94
2022-11-15T03:24:47.885Z,96650.78
2022-11-15T03:27:20.248Z,96642.84
2022-11-15T03:29:54.279Z,96645.34
2022-11-15T03:32:27.620Z,96646.53
2022-11-15T03:35:02.646Z,96638.50
2022-11-15T03:37:38.293Z,96638.31
2022-11-15T03:40:08.786Z,96639.38
2022-11-15T03:42:45.467Z,96639.97
2022-11-15T03:45:19.403Z,96631.44
2022-11-15T03:47:51.893Z,96634.66
2022-11-15T03:50:24.250Z,96640.22
2022-11-15T03:52:57.314Z,96635.31
2022-11-15T03:55:25.890Z,96642.31
2022-11-15T03:57:58.774Z,96630.16
2022-11-15T04:00:27.408Z,96635.09
2022-11-15T04:02:55.832Z,96621.91
2022-11-15T04:05:25.617Z,96630.94
2022-11-15T04:07:53.992Z,96626.44
2022-11-15T04:10:23.689Z,96629.84
2022-11-15T04:12:52.264Z,96622.81
2022-11-15T04:15:24.056Z,96625.13
2022-11-15T04:17:56.495Z,96621.00
2022-11-15T04:20:46.893Z,96616.97
2022-11-15T04:23:35.830Z,96613.31
2022-11-15T04:26:06.973Z,96612.75
2022-11-15T04:28:35.413Z,96612.22
2022-11-15T04:31:04.753Z,96611.28
2022-11-15T04:33:33.427Z,96619.06
2022-11-15T04:36:21.093Z,96620.72
2022-11-15T04:38:49.446Z,96617.31
2022-11-15T04:41:17.746Z,96609.91
2022-11-15T04:43:46.159Z,96606.53
2022-11-15T04:46:14.592Z,96602.81
2022-11-15T04:48:42.942Z,96610.84
2022-11-15T04:51:12.658Z,96621.44
2022-11-15T04:53:41.015Z,96607.91
2022-11-15T04:56:09.582Z,96596.56
2022-11-15T04:58:38.040Z,96603.16
2022-11-15T05:01:10.072Z,96599.75
2022-11-15T05:03:56.314Z,96610.84
2022-11-15T05:06:26.154Z,96613.34
2022-11-15T05:08:55.312Z,96605.25
2022-11-15T05:11:24.910Z,96606.25
2022-11-15T05:13:53.245Z,96610.81
2022-11-15T05:16:21.969Z,96612.78
2022-11-15T05:18:53.440Z,96612.22
2022-11-15T05:21:22.523Z,96616.69
2022-11-15T05:23:52.518Z,96606.22
2022-11-15T05:26:21.596Z,96599.75
2022-11-15T05:28:55.829Z,96589.72
2022-11-15T05:31:26.036Z,96599.19
2022-11-15T05:33:56.161Z,96590.22
2022-11-15T05:36:33.805Z,96589.22
2022-11-15T05:39:04.539Z,96587.47
2022-11-15T05:41:37.266Z,96589.78
2022-11-15T05:44:08.788Z,96592.09
2022-11-15T05:46:39.611Z,96585.88
2022-11-15T05:49:13.418Z,96586.53
2022-11-15T05:51:44.425Z,96577.44
2022-11-15T05:54:14.521Z,96566.34
2022-11-15T05:56:43.093Z,96572.19
2022-11-15T05:59:13.346Z,96574.41
2022-11-15T06:01:42.144Z,96578.13
2022-11-15T06:04:10.622Z,96580.69
2022-11-15T06:06:39.169Z,96578.06
2022-11-15T06:09:07.612Z,96579.84
2022-11-15T06:11:37.421Z,96577.75
2022-11-15T06:14:06.117Z,96576.47
2022-11-15T06:16:34.471Z,96590.19
2022-11-15T06:19:03.304Z,96579.59
2022-11-15T06:21:31.778Z,96585.25
2022-11-15T06:24:00.102Z,96586.59
2022-11-15T06:26:28.422Z,96582.47
2022-11-15T06:28:58.149Z,96581.47
2022-11-15T06:31:26.466Z,96577.25
2022-11-15T06:33:54.782Z,96580.28
2022-11-15T06:36:23.194Z,96570.19
2022-11-15T06:38:51.983Z,96571.19
2022-11-15T06:41:22.018Z,96570.94
2022-11-15T06:43:50.357Z,96575.75
2022-11-15T06:46:20.028Z,96572.72
2022-11-15T06:48:48.775Z,96578.75
2022-11-15T06:51:17.101Z,96576.94
2022-11-15T06:53:45.411Z,96578.47
2022-11-15T06:56:13.807Z,96577.56
2022-11-15T06:58:42.088Z,96573.56
2022-11-15T07:01:12.832Z,96576.09
2022-11-15T07:03:44.137Z,96574.91
2022-11-15T07:06:12.854Z,96573.88
2022-11-15T07:08:42.609Z,96570.94
2022-11-15T07:11:11.567Z,96571.03
2022-11-15T07:13:40.091Z,96570.97
2022-11-15T07:16:11.597Z,96573.34
2022-11-15T07:18:42.319Z,96568.78
2022-11-15T07:21:13.663Z,96569.97
2022-11-15T07:23:42.221Z,96578.25
2022-11-15T07:26:10.728Z,96569.09
2022-11-15T07:28:39.057Z,96568.84
2022-11-15T07:31:10.325Z,96572.38
2022-11-15T07:33:39.052Z,96564.88
2022-11-15T07:36:10.861Z,96570.94
2022-11-15T07:38:42.740Z,96563.59
2022-11-15T07:41:11.972Z,96560.78
2022-11-15T07:43:40.276Z,96566.09
2022-11-15T07:46:10.385Z,96559.50
2022-11-15T07:48:45.565Z,96576.94
2022-11-15T07:51:16.782Z,96564.38
2022-11-15T07:53:45.565Z,96560.75
2022-11-15T07:56:14.862Z,96547.44
2022-11-15T07:58:43.264Z,96554.66
2022-11-15T08:01:13.547Z,96549.47
2022-11-15T08:03:42.028Z,96544.28
2022-11-15T08:06:10.313Z,96555.28
2022-11-15T08:08:40.007Z,96556.06
2022-11-15T08:11:08.565Z,96552.38
2022-11-15T08:13:37.639Z,96541.28
2022-11-15T08:16:09.166Z,96546.94
2022-11-15T08:18:37.534Z,96544.84
2022-11-15T08:21:06.870Z,96534.84
2022-11-15T08:23:35.448Z,96530.31
2022-11-15T08:26:07.411Z,96537.22
2022-11-15T08:28:35.752Z,96528.78
2022-11-15T08:31:04.625Z,96542.91
2022-11-15T08:33:34.383Z,96534.53
2022-11-15T08:36:03.770Z,96528.19
2022-11-15T08:38:32.449Z,96534.09
2022-11-15T08:41:07.153Z,96528.44
2022-11-15T08:43:35.711Z,96535.63
2022-11-15T08:46:04.127Z,96516.16
2022-11-15T08:48:32.871Z,96519.81
2022-11-15T08:51:01.341Z,96511.16
2022-11-15T08:53:29.790Z,96509.41
2022-11-15T08:55:58.411Z,96515.59
2022-11-15T08:58:28.221Z,96507.41
2022-11-15T09:00:56.622Z,96514.25
2022-11-15T09:03:25.293Z,96510.13
2022-11-15T09:05:58.054Z,96532.78
2022-11-15T09:08:46.441Z,96534.84
2022-11-15T09:11:21.197Z,96523.69
2022-11-15T09:13:51.391Z,96524.16
2022-11-15T09:16:20.006Z,96528.44
2022-11-15T09:18:49.059Z,96524.19
2022-11-15T09:21:18.226Z,96519.88
2022-11-15T09:23:46.883Z,96511.75
2022-11-15T09:26:15.534Z,96521.50
2022-11-15T09:28:44.270Z,96514.91
2022-11-15T09:31:17.966Z,96516.06
2022-11-15T09:33:49.852Z,96519.16
2022-11-15T09:36:18.866Z,96515.81
2022-11-15T09:38:47.291Z,96521.91
2022-11-15T09:42:02.470Z,96527.06
2022-11-15T09:44:56.601Z,96515.22
2022-11-15T09:47:56.227Z,96525.34
2022-11-15T09:50:36.481Z,96514.53
2022-11-15T09:53:11.287Z,96510.16
2022-11-15T09:56:02.341Z,96511.75
2022-11-15T09:58:38.862Z,96503.31
2022-11-15T10:01:16.855Z,96499.47
2022-11-15T10:03:46.862Z,96506.72
2022-11-15T10:06:25.960Z,96499.00
2022-11-15T10:09:01.875Z,96491.53
2022-11-15T10:11:37.908Z,96498.38
2022-11-15T10:14:14.244Z,96498.53
2022-11-15T10:17:10.405Z,96505.59
2022-11-15T10:19:52.226Z,96493.91
2022-11-15T10:22:29.459Z,96495.91
2022-11-15T10:25:19.003Z,96475.00
2022-11-15T10:28:01.200Z,96479.47
2022-11-15T10:30:36.836Z,96466.09
2022-11-15T10:33:21.784Z,96475.34
2022-11-15T10:36:18.259Z,96472.59
2022-11-15T10:39:00.317Z,96458.69
2022-11-15T10:41:38.782Z,96472.06
2022-11-15T10:44:26.681Z,96461.44
2022-11-15T10:47:36.040Z,96454.72
2022-11-15T10:50:29.788Z,96463.00
2022-11-15T10:53:01.355Z,96459.25
2022-11-15T10:55:33.711Z,96465.03
2022-11-15T10:58:09.299Z,96464.41
2022-11-15T11:00:40.887Z,96457.22
2022-11-15T11:03:30.756Z,96456.16
2022-11-15T11:06:15.019Z,96445.16
2022-11-15T11:08:58.481Z,96442.88
2022-11-15T11:11:27.063Z,96435.34
2022-11-15T11:13:56.005Z,96434.28
2022-11-15T11:16:44.952Z,96431.34
2022-11-15T11:19:37.794Z,96433.84
2022-11-15T11:22:17.658Z,96434.72
2022-11-15T11:24:58.568Z,96425.94
2022-11-15T11:27:47.230Z,96427.59
2022-11-15T11:30:21.931Z,96425.84
2022-11-15T11:33:15.478Z,96420.28
2022-11-15T11:35:57.945Z,96424.16
2022-11-15T11:38:54.965Z,96418.72
2022-11-15T11:41:44.400Z,96421.47
2022-11-15T11:44:32.937Z,96409.56
2022-11-15T11:47:03.963Z,96412.28
2022-11-15T11:49:41.620Z,96414.63
2022-11-15T11:52:17.521Z,96410.84
2022-11-15T11:54:56.166Z,96395.31
2022-11-15T11:57:36.148Z,96393.72
2022-11-15T12:00:18.133Z,96400.81
2022-11-15T12:02:56.003Z,96402.75
2022-11-15T12:05:35.326Z,96395.09
2022-11-15T12:08:17.670Z,96392.00
2022-11-15T12:10:51.346Z,96387.69
2022-11-15T12:13:26.544Z,96391.59
2022-11-15T12:16:06.138Z,96391.22
2022-11-15T12:18:37.755Z,96382.47
2022-11-15T12:21:16.042Z,96374.09
2022-11-15T12:23:48.574Z,96374.22
2022-11-15T12:26:21.632Z,96375.03
2022-11-15T12:29:07.471Z,96380.69
2022-11-15T12:31:42.137Z,96373.22
2022-11-15T12:34:42.926Z,96376.34
2022-11-15T12:37:56.178Z,96368.91
2022-11-15T12:40:34.073Z,96357.81
2022-11-15T12:43:43.327Z,96345.56
2022-11-15T12:46:25.363Z,96327.88
2022-11-15T12:48:59.526Z,96327.09
2022-11-15T12:52:09.298Z,96318.31
2022-11-15T12:55:21.230Z,96309.72
2022-11-15T12:57:49.720Z,96321.78
2022-11-15T13:00:48.335Z,96313.94
2022-11-15T13:03:30.655Z,96310.63
2022-11-15T13:06:04.101Z,96306.19
2022-11-15T13:08:50.254Z,96296.59
2022-11-15T13:11:52.754Z,96286.84
2022-11-15T13:14:49.018Z,96282.22
2022-11-15T13:17:35.575Z,96282.34
2022-11-15T13:20:28.014Z,96272.28
2022-11-15T13:23:05.334Z,96280.19
2022-11-15T13:26:08.274Z,96265.50
2022-11-15T13:28:43.804Z,96265.44
2022-11-15T13:31:31.256Z,96269.00
2022-11-15T13:34:07.310Z,96260.06
2022-11-15T13:36:48.588Z,96249.38
2022-11-15T13:39:29.864Z,96247.31
2022-11-15T13:41:58.973Z,96254.03
2022-11-15T13:44:30.744Z,96252.63
2022-11-15T13:47:08.064Z,96254.63
2022-11-15T13:49:38.737Z,96244.94
2022-11-15T13:52:11.972Z,96243.38
2022-11-15T13:54:45.987Z,96250.69
2022-11-15T13:57:21.267Z,96249.19
2022-11-15T13:59:52.565Z,96239.97
2022-11-15T14:02:23.495Z,96213.09
2022-11-15T14:04:56.375Z,96225.84
2022-11-15T14:07:28.843Z,96234.50
2022-11-15T14:10:28.429Z,96216.09
2022-11-15T14:12:56.877Z,96219.66
2022-11-15T14:15:32.909Z,96215.84
2022-11-15T14:18:01.552Z,96206.31
2022-11-15T14:20:38.036Z,96206.38
2022-11-15T14:23:27.023Z,96209.88
2022-11-15T14:25:58.987Z,96197.84
2022-11-15T14:28:34.658Z,96196.25
2022-11-15T14:31:15.188Z,96185.38
2022-11-15T14:33:43.949Z,96180.47
2022-11-15T14:36:16.801Z,96182.84
2022-11-15T14:38:46.914Z,96181.09
2022-11-15T14:41:22.467Z,96183.47
2022-11-15T14:43:51.304Z,96186.38
2022-11-15T14:46:20.243Z,96184.22
2022-11-15T14:48:49.193Z,96181.66
2022-11-15T14:51:20.229Z,96193.41
2022-11-15T14:53:50.409Z,96181.09
2022-11-15T14:56:18.974Z,96175.84
2022-11-15T14:58:47.201Z,96179.13
2022-11-15T15:01:20.355Z,96176.03
2022-11-15T15:03:48.916Z,96169.81
2022-11-15T15:06:18.554Z,96165.75
2022-11-15T15:08:49.009Z,96167.94
2022-11-15T15:11:24.044Z,96162.09
2022-11-15T15:13:53.287Z,96160.25
2022-11-15T15:16:21.751Z,96151.72
2022-11-15T15:18:50.398Z,96143.09
2022-11-15T15:21:24.317Z,96144.91
2022-11-15T15:23:55.556Z,96127.91
2022-11-15T15:26:26.163Z,96138.41
2022-11-15T15:28:54.552Z,96125.00
2022-11-15T15:31:22.846Z,96137.25
2022-11-15T15:33:51.113Z,96123.41
2022-11-15T15:36:20.925Z,96115.75
2022-11-15T15:38:49.228Z,96119.06
2022-11-15T15:41:19.107Z,96112.66
2022-11-15T15:43:48.991Z,96101.28
2022-11-15T15:46:20.269Z,96107.06
2022-11-15T15:48:49.448Z,96101.13
2022-11-15T15:51:20.366Z,96104.38
2022-11-15T15:53:49.569Z,96097.16
2022-11-15T15:56:17.943Z,96085.59
2022-11-15T15:58:46.388Z,96077.81
2022-11-15T16:01:16.174Z,96073.66
2022-11-15T16:03:44.527Z,96061.19
2022-11-15T16:06:39.301Z,96054.06
2022-11-15T16:09:14.984Z,96057.78
2022-11-15T16:11:46.411Z,96058.47
2022-11-15T16:14:14.963Z,96050.38
2022-11-15T16:16:46.793Z,96047.31
2022-11-15T16:19:15.112Z,96041.16
2022-11-15T16:21:43.465Z,96031.19
2022-11-15T16:24:11.795Z,96031.97
2022-11-15T16:26:40.531Z,96031.09
2022-11-15T16:29:10.517Z,96026.97
2022-11-15T16:31:39.186Z,96035.06
2022-11-15T16:34:09.081Z,96029.59
2022-11-15T16:36:37.902Z,96024.63
2022-11-15T16:39:07.514Z,96015.16
2022-11-15T16:41:35.830Z,96027.47
2022-11-15T16:44:04.346Z,96022.16
2022-11-15T16:46:32.836Z,96013.28
2022-11-15T16:49:05.457Z,96009.34
2022-11-15T16:51:35.166Z,96004.84
2022-11-15T16:54:03.497Z,96001.31
2022-11-15T16:56:32.628Z,95999.66
2022-11-15T16:59:02.798Z,95999.03
2022-11-15T17:01:36.121Z,96000.56
2022-11-15T17:04:12.837Z,96005.28
2022-11-15T17:06:44.650Z,95996.19
2022-11-15T17:09:15.326Z,96006.53
2022-11-15T17:11:48.201Z,96011.50
2022-11-15T17:14:17.682Z,95995.09
2022-11-15T17:16:46.913Z,96000.44
2022-11-15T17:19:16.809Z,95989.44
2022-11-15T17:21:50.607Z,95985.00
2022-11-15T17:24:21.135Z,95987.97
2022-11-15T17:26:50.232Z,95981.44
2022-11-15T17:29:19.381Z,95963.09
2022-11-15T17:31:48.149Z,95958.09
2022-11-15T17:34:16.646Z,95959.75
2022-11-15T17:36:45.327Z,95952.22
2022-11-15T17:39:15.475Z,95947.44
2022-11-15T17:41:44.001Z,95945.16
2022-11-15T17:44:13.373Z,95943.25
2022-11-15T17:46:41.865Z,95944.91
2022-11-15T17:49:10.226Z,95950.94
2022-11-15T17:51:38.566Z,95932.38
2022-11-15T17:54:07.618Z,95924.84
2022-11-15T17:56:41.584Z,95928.38
2022-11-15T17:59:14.758Z,95930.91
2022-11-15T18:01:45.600Z,95929.88
2022-11-15T18:04:15.765Z,95936.91
2022-11-15T18:06:44.710Z,95938.91
2022-11-15T18:09:15.536Z,95926.19
2022-11-15T18:11:50.525Z,95931.16
2022-11-15T18:14:20.898Z,95916.94
2022-11-15T18:16:49.489Z,95903.72
2022-11-15T18:19:17.793Z,95908.19
2022-11-15T18:22:01.438Z,95914.28
2022-11-15T18:24:31.667Z,95920.19
2022-11-15T18:27:04.424Z,95912.97
2022-11-15T18:29:34.546Z,95907.28
2022-11-15T18:32:06.416Z,95890.50
2022-11-15T18:34:41.439Z,95902.78
2022-11-15T18:37:15.823Z,95906.09
2022-11-15T18:39:52.865Z,95899.84
2022-11-15T18:42:24.210Z,95896.69
2022-11-15T18:44:52.502Z,95892.91
2022-11-15T18:47:23.267Z,95892.53
2022-11-15T18:49:51.871Z,95882.09
2022-11-15T18:52:20.838Z,95878.03
2022-11-15T18:54:49.230Z,95882.94
2022-11-15T18:57:17.835Z,95868.84
2022-11-15T18:59:47.582Z,95874.47
2022-11-15T19:02:18.609Z,95863.44
2022-11-15T19:04:48.442Z,95853.88
2022-11-15T19:07:17.051Z,95843.22
2022-11-15T19:09:47.239Z,95850.69
2022-11-15T19:12:15.732Z,95845.28
2022-11-15T19:14:53.551Z,95837.44
2022-11-15T19:17:24.145Z,95844.16
2022-11-15T19:19:54.917Z,95831.00
2022-11-15T19:22:24.575Z,95840.13
2022-11-15T19:24:53.031Z,95834.78
2022-11-15T19:27:21.326Z,95831.22
2022-11-15T19:29:53.135Z,95825.66
2022-11-15T19:32:21.681Z,95822.97
2022-11-15T19:34:52.579Z,95818.84
2022-11-15T19:37:22.272Z,95816.28
2022-11-15T19:39:52.841Z,95809.69
2022-11-15T19:42:23.629Z,95815.06
2022-11-15T19:44:55.052Z,95811.34
2022-11-15T19:47:26.321Z,95808.50
2022-11-15T19:49:54.665Z,95807.88
2022-11-15T19:52:24.496Z,95810.94
2022-11-15T19:54:53.155Z,95808.22
2022-11-15T19:57:22.422Z,95789.69
2022-11-15T19:59:51.609Z,95793.94
2022-11-15T20:02:22.056Z,95786.94
2022-11-15T20:04:51.469Z,95780.63
2022-11-15T20:07:22.058Z,95778.56
2022-11-15T20:09:51.290Z,95766.16
2022-11-15T20:12:20.012Z,95770.06
2022-11-15T20:14:48.509Z,95758.97
2022-11-15T20:17:17.965Z,95756.16
2022-11-15T20:19:47.970Z,95755.97
2022-11-15T20:22:16.245Z,95754.97
2022-11-15T20:24:50.654Z,95750.94
2022-11-15T20:27:19.066Z,95757.97
2022-11-15T20:29:48.838Z,95745.59
2022-11-15T20:32:17.462Z,95737.72
2022-11-15T20:34:52.856Z,95735.59
2022-11-15T20:37:24.946Z,95729.72
2022-11-15T20:39:53.573Z,95726.38
2022-11-15T20:42:22.031Z,95726.25
2022-11-15T20:44:50.527Z,95733.91
2022-11-15T20:47:19.324Z,95725.13
2022-11-15T20:49:49.099Z,95726.94
2022-11-15T20:52:17.825Z,95722.50
2022-11-15T20:54:46.837Z,95721.91
2022-11-15T20:57:16.059Z,95727.53
2022-11-15T20:59:45.163Z,95729.19
2022-11-15T21:02:15.248Z,95735.13
2022-11-15T21:04:48.069Z,95721.44
2022-11-15T21:07:18.974Z,95713.03
2022-11-15T21:10:06.192Z,95718.50
2022-11-15T21:12:34.823Z,95718.22
2022-11-15T21:15:04.586Z,95713.97
2022-11-15T21:17:38.376Z,95706.63
2022-11-15T21:20:13.192Z,95715.78
2022-11-15T21:22:43.409Z,95702.84
2022-11-15T21:25:12.384Z,95704.06
2022-11-15T21:27:40.777Z,95706.50
2022-11-15T21:30:10.634Z,95709.31
2022-11-15T21:32:40.260Z,95700.63
2022-11-15T21:35:09.813Z,95720.06
2022-11-15T21:37:43.730Z,95713.69
2022-11-15T21:40:13.607Z,95718.47
2022-11-15T21:42:42.014Z,95721.50
2022-11-15T21:45:12.526Z,95732.78
2022-11-15T21:47:45.769Z,95735.03
2022-11-15T21:50:15.386Z,95732.97
2022-11-15T21:52:46.982Z,95725.06
2022-11-15T21:55:17.088Z,95731.19
2022-11-15T21:57:45.417Z,95737.19
2022-11-15T22:00:33.624Z,95734.34
2022-11-15T22:03:02.085Z,95731.06
2022-11-15T22:05:31.682Z,95741.91
2022-11-15T22:08:01.902Z,95736.72
2022-11-15T22:10:30.317Z,95723.72
2022-11-15T22:12:58.747Z,95718.59
2022-11-15T22:15:27.379Z,95725.81
2022-11-15T22:18:01.657Z,95723.50
2022-11-15T22:20:44.571Z,95722.75
2022-11-15T22:23:15.145Z,95726.63
2022-11-15T22:25:45.136Z,95738.81
2022-11-15T22:28:13.695Z,95732.50
2022-11-15T22:30:43.284Z,95722.00
2022-11-15T22:33:12.950Z,95715.97
2022-11-15T22:35:41.740Z,95717.97
2022-11-15T22:38:11.886Z,95703.59
2022-11-15T22:40:42.634Z,95714.63
2022-11-15T22:43:12.830Z,95724.00
2022-11-15T22:45:53.038Z,95724.59
2022-11-15T22:48:24.993Z,95728.47
2022-11-15T22:50:54.309Z,95727.84
2022-11-15T22:53:23.756Z,95722.66
2022-11-15T22:55:55.860Z,95710.97
2022-11-15T22:58:27.321Z,95709.31
2022-11-15T23:00:59.475Z,95701.91
2022-11-15T23:03:29.282Z,95704.06
2022-11-15T23:06:03.604Z,95700.53
2022-11-15T23:08:32.852Z,95701.28
2022-11-15T23:11:22.223Z,95698.59
2022-11-15T23:13:58.660Z,95705.41
2022-11-15T23:16:34.393Z,95710.66
2022-11-15T23:19:05.809Z,95715.31
2022-11-15T23:21:55.085Z,95716.53
2022-11-15T23:24:24.274Z,95719.19
2022-11-15T23:26:57.599Z,95725.56
2022-11-15T23:29:27.937Z,95721.69
2022-11-15T23:32:15.404Z,95717.94
2022-11-15T23:34:58.326Z,95715.31
2022-11-15T23:37:29.238Z,95714.56
2022-11-15T23:39:59.530Z,95709.47
2022-11-15T23:42:30.421Z,95719.03
2022-11-15T23:44:59.472Z,95713.19
2022-11-15T23:47:28.253Z,95714.69
2022-11-15T23:49:56.878Z,95713.91
2022-11-15T23:52:26.076Z,95713.94
2022-11-15T23:54:54.666Z,95719.19
2022-11-15T23:57:23.304Z,95717.50
2022-11-15T23:59:53.660Z,95720.25
